Disclaimer

Please do not use the information listed here in-flight or in-navigation, as they are not provided to us by the airports but are provided by volunteers, so they might be outdated.

Search


Regions


Airport information page

Radio informations:
Ground (GND) - 121.9 MHz

Airport informations:
Latitude: 65° 57' 24.58" N
Longitude: 012° 28' 08.20" E
Elevation: 56 feet - 17 meters
Operating hours: Remarks
Operating agency: Civil government, landing fees and diplomatic clearance may be required
Timezone: UTC+1(+2DT) - Last Sunday in March to last Sunday in October
Fuel: Jet A1, without icing nhibitor.

100/130 MIL Spec, low lead, aviation gasoline (BLUE)

Runway information:
03/21 - 3563 x 98 feet< - >1086 x 30 meters

Recent METARs:
ENST 202220Z 06006KT CAVOK 00/M01 Q1036 RMK WIND 300FT 05011KT
ENST 202220Z 06006KT CAVOK 00/M01 Q1036 RMK WIND 300FT 05011KT
ENST 202220Z 06006KT CAVOK 00/M01 Q1036 RMK WIND 300FT 05011KT

Airport on the map: